This is the latest recevied weather packets stored in our database for station/object DL9SEC-13. If no packets are shown the sender has not sent any weather packets the latest 10 day(s).
| Time | Temp. | Humidity | Pressure | Rain* | Wind** | Luminosity | Snow |
|---|---|---|---|---|---|---|---|
| 1777693203 | 8.33° C | 69% | 1025.4 hPa | 0 mm | - | - | - |
| 1777692303 | 8.89° C | 68% | 1025.6 hPa | 0 mm | - | - | - |
| 1777691403 | 8.89° C | 67% | 1025.7 hPa | 0 mm | - | - | - |
| 1777690502 | 8.89° C | 67% | 1025.8 hPa | 0 mm | - | - | - |
| 1777689603 | 9.44° C | 66% | 1025.9 hPa | 0 mm | - | - | - |
| 1777688703 | 9.44° C | 65% | 1025.8 hPa | 0 mm | - | - | - |
| 1777687803 | 10° C | 64% | 1026 hPa | 0 mm | - | - | - |
| 1777686902 | 10.56° C | 62% | 1026 hPa | 0 mm | - | - | - |
| 1777686003 | 10.56° C | 58% | 1026.1 hPa | 0 mm | - | - | - |
| 1777685103 | 9.44° C | 62% | 1026.1 hPa | 0 mm | - | - | - |
| 1777684203 | 10.56° C | 61% | 1026.1 hPa | 0 mm | - | - | - |
| 1777683303 | 10.56° C | 60% | 1026.1 hPa | 0 mm | - | - | - |
| 1777682403 | 11.67° C | 55% | 1026.2 hPa | 0 mm | - | - | - |
| 1777681503 | 12.78° C | 53% | 1026.2 hPa | 0 mm | - | - | - |
| 1777680603 | 13.33° C | 50% | 1026.2 hPa | 0 mm | - | - | - |
| 1777679703 | 13.33° C | 49% | 1026.4 hPa | 0 mm | - | - | - |
| 1777678803 | 13.89° C | 47% | 1026.4 hPa | 0 mm | - | - | - |
| 1777677903 | 13.89° C | 47% | 1026.5 hPa | 0 mm | - | - | - |
| 1777677003 | 14.44° C | 46% | 1026.4 hPa | 0 mm | - | - | - |
| 1777676103 | 14.44° C | 45% | 1026.5 hPa | 0 mm | - | - | - |
| 1777675202 | 14.44° C | 45% | 1026.5 hPa | 0 mm | - | - | - |
| 1777674304 | 15° C | 45% | 1026.5 hPa | 0 mm | - | - | - |
| 1777673403 | 15° C | 45% | 1026.5 hPa | 0 mm | - | - | - |
| 1777672503 | 15° C | 44% | 1026.4 hPa | 0 mm | - | - | - |
| 1777671603 | 15.56° C | 44% | 1026.4 hPa | 0 mm | - | - | - |
* Rain latest hour (hover to see other rain measurements)
** Current wind speed in m/s (hover to see current wind gust speed)